createdAt,value
2018-11-01T08:30:38.246Z,47.00
2018-11-01T08:33:08.038Z,47.70
2018-11-01T08:35:39.329Z,49.10
2018-11-01T08:38:09.610Z,50.90
2018-11-01T08:40:41.028Z,52.80
2018-11-01T08:43:11.212Z,54.60
2018-11-01T08:45:41.021Z,56.40
2018-11-01T08:48:11.914Z,58.30
2018-11-01T08:50:48.658Z,61.00
2018-11-01T08:53:21.536Z,62.30
2018-11-01T08:55:51.837Z,64.10
2018-11-01T08:58:22.901Z,65.70
2018-11-01T09:00:54.147Z,66.90
2018-11-01T09:03:25.437Z,68.00
2018-11-01T09:05:56.726Z,69.00
2018-11-01T09:08:27.468Z,70.00
2018-11-01T09:10:57.912Z,70.80
2018-11-01T09:13:28.283Z,71.70
2018-11-01T09:15:59.300Z,72.40
2018-11-01T09:18:29.428Z,72.70
2018-11-01T09:21:00.292Z,72.90
2018-11-01T09:23:31.762Z,73.40
2018-11-01T09:26:02.640Z,73.90
2018-11-01T09:28:33.173Z,74.10
2018-11-01T09:31:04.869Z,73.90
2018-11-01T09:33:35.349Z,74.00
2018-11-01T09:36:07.715Z,74.00
2018-11-01T09:38:41.946Z,74.20
2018-11-01T09:41:12.668Z,74.20
2018-11-01T09:43:43.265Z,74.20
2018-11-01T09:46:14.157Z,73.90
2018-11-01T09:48:45.889Z,74.00
2018-11-01T09:51:16.533Z,74.40
2018-11-01T09:53:46.912Z,74.60
2018-11-01T09:56:17.510Z,74.40
2018-11-01T09:58:48.402Z,74.70
2018-11-01T10:01:18.795Z,74.40
2018-11-01T10:03:49.636Z,74.30
2018-11-01T10:06:20.660Z,74.50
2018-11-01T10:08:51.816Z,74.30
2018-11-01T10:11:22.829Z,74.00
2018-11-01T10:13:53.609Z,74.10
2018-11-01T10:16:24.187Z,74.10
2018-11-01T10:18:54.699Z,74.30
2018-11-01T10:21:24.702Z,74.00
2018-11-01T10:23:54.535Z,73.80
2018-11-01T10:26:24.575Z,73.60
2018-11-01T10:28:54.825Z,73.20
2018-11-01T10:31:26.310Z,73.00
2018-11-01T10:33:56.981Z,72.90
2018-11-01T10:36:27.854Z,72.10
2018-11-01T10:38:58.332Z,71.40
2018-11-01T10:41:29.773Z,72.10
2018-11-01T10:44:00.843Z,72.00
2018-11-01T10:46:31.054Z,71.30
2018-11-01T10:49:01.165Z,70.80
2018-11-01T10:51:31.453Z,70.20
2018-11-01T10:54:01.906Z,69.40
2018-11-01T10:56:32.432Z,69.00
2018-11-01T10:59:02.968Z,68.80
2018-11-01T11:01:39.115Z,68.10
2018-11-01T11:04:10.197Z,68.60
2018-11-01T11:06:40.293Z,68.40
2018-11-01T11:09:11.411Z,68.80
2018-11-01T11:11:42.577Z,68.70
2018-11-01T11:14:12.999Z,67.80
2018-11-01T11:16:44.480Z,67.40
2018-11-01T11:19:15.740Z,66.20
2018-11-01T11:21:46.149Z,66.70
2018-11-01T11:24:17.921Z,66.10
2018-11-01T11:26:48.876Z,66.10
2018-11-01T11:29:19.875Z,65.30
2018-11-01T11:31:50.524Z,63.70
2018-11-01T11:34:28.844Z,65.50
2018-11-01T11:36:59.940Z,64.30
2018-11-01T11:39:30.164Z,63.30
2018-11-01T11:42:00.747Z,64.10
2018-11-01T11:44:31.006Z,64.40
2018-11-01T11:47:01.031Z,63.90
2018-11-01T11:49:31.711Z,65.20
2018-11-01T11:52:02.243Z,65.30
2018-11-01T11:54:32.648Z,63.50
2018-11-01T11:57:03.034Z,64.40
2018-11-01T11:59:36.253Z,63.40
2018-11-01T12:02:06.365Z,61.70
2018-11-01T12:04:37.410Z,61.60
2018-11-01T12:07:07.704Z,63.10
2018-11-01T12:09:38.194Z,62.40
2018-11-01T12:12:08.508Z,63.10
2018-11-01T12:14:38.436Z,61.20
2018-11-01T12:17:08.434Z,61.90
2018-11-01T12:19:38.529Z,62.00
2018-11-01T12:22:09.862Z,61.00
2018-11-01T12:24:41.295Z,60.70
2018-11-01T12:27:13.955Z,60.90
2018-11-01T12:29:45.055Z,60.70
2018-11-01T12:32:15.949Z,60.10
2018-11-01T12:34:46.483Z,59.60
2018-11-01T12:37:17.741Z,59.60
2018-11-01T12:39:48.264Z,60.10
2018-11-01T12:42:20.406Z,60.90
2018-11-01T12:44:52.911Z,59.60
2018-11-01T12:47:24.044Z,60.80
2018-11-01T12:49:55.577Z,60.00
2018-11-01T12:52:26.101Z,58.90
2018-11-01T12:54:55.731Z,59.40
2018-11-01T12:57:26.239Z,58.30
2018-11-01T12:59:56.156Z,58.30
2018-11-01T13:02:27.089Z,57.60
2018-11-01T13:04:57.014Z,58.20
2018-11-01T13:07:26.893Z,57.70
2018-11-01T13:09:58.056Z,57.10
2018-11-01T13:12:28.434Z,56.80
2018-11-01T13:14:58.686Z,56.50
2018-11-01T13:17:28.829Z,56.40
2018-11-01T13:19:58.692Z,56.00
2018-11-01T13:22:29.414Z,56.10
2018-11-01T13:24:59.123Z,57.30
2018-11-01T13:27:29.529Z,57.50
2018-11-01T13:29:59.539Z,57.10
2018-11-01T13:32:29.167Z,56.60
2018-11-01T13:34:59.141Z,56.00
2018-11-01T13:37:31.399Z,56.10
2018-11-01T13:40:01.691Z,55.10
2018-11-01T13:42:32.057Z,55.00
2018-11-01T13:45:02.906Z,54.40
2018-11-01T13:47:34.199Z,54.40
2018-11-01T13:50:04.652Z,54.20
2018-11-01T13:52:35.154Z,55.10
2018-11-01T13:55:06.143Z,55.10
2018-11-01T13:57:36.513Z,54.60
2018-11-01T14:00:07.279Z,54.70
2018-11-01T14:02:39.652Z,55.20
2018-11-01T14:05:12.016Z,56.30
2018-11-01T14:07:42.513Z,57.00
2018-11-01T14:10:25.062Z,57.30
2018-11-01T14:13:01.854Z,58.40
2018-11-01T14:15:32.388Z,58.00
2018-11-01T14:18:02.074Z,57.80
2018-11-01T14:20:32.677Z,57.80
2018-11-01T14:23:03.057Z,58.10
2018-11-01T14:25:33.982Z,58.40
2018-11-01T14:28:03.853Z,57.90
2018-11-01T14:30:34.603Z,58.70
2018-11-01T14:33:06.335Z,59.20
2018-11-01T14:35:37.051Z,59.30
2018-11-01T14:38:09.499Z,59.80
2018-11-01T14:40:39.637Z,59.80
2018-11-01T14:43:11.061Z,60.40
2018-11-01T14:45:41.736Z,59.70
2018-11-01T14:48:12.080Z,60.20
2018-11-01T14:50:42.721Z,60.90
2018-11-01T14:53:12.974Z,61.40
2018-11-01T14:55:44.382Z,61.70
2018-11-01T14:58:14.427Z,61.80
2018-11-01T15:00:43.296Z,62.00
2018-11-01T15:03:13.645Z,62.20
2018-11-01T15:05:45.073Z,61.80
2018-11-01T15:08:15.592Z,61.50
2018-11-01T15:10:46.364Z,61.60
2018-11-01T15:13:17.907Z,61.80
2018-11-01T15:15:47.968Z,62.00
2018-11-01T15:18:18.290Z,62.30
2018-11-01T15:20:48.804Z,62.30
2018-11-01T15:23:18.801Z,62.40
2018-11-01T15:25:49.003Z,62.70
2018-11-01T15:28:20.043Z,63.00
2018-11-01T15:30:53.603Z,63.60
2018-11-01T15:33:24.007Z,63.50
2018-11-01T15:35:53.855Z,63.60
2018-11-01T15:38:24.649Z,64.20
2018-11-01T15:41:00.265Z,64.50
2018-11-01T15:43:31.329Z,65.20
2018-11-01T15:46:01.483Z,65.20
2018-11-01T15:48:39.087Z,65.40
2018-11-01T15:51:37.684Z,65.50
2018-11-01T15:54:08.341Z,65.80
2018-11-01T15:56:38.943Z,66.20
2018-11-01T15:59:10.724Z,66.40
2018-11-01T16:01:41.038Z,66.40
2018-11-01T16:04:13.113Z,66.90
2018-11-01T16:06:44.179Z,67.40
2018-11-01T16:09:14.732Z,67.30
2018-11-01T16:11:45.093Z,67.30
2018-11-01T16:14:16.211Z,67.40
2018-11-01T16:16:46.927Z,68.10
2018-11-01T16:19:17.007Z,67.60
2018-11-01T16:21:47.452Z,68.10
2018-11-01T16:24:19.077Z,68.10
2018-11-01T16:26:50.071Z,68.40
2018-11-01T16:29:20.385Z,68.30
2018-11-01T16:31:50.488Z,68.90
2018-11-01T16:34:21.297Z,69.20
2018-11-01T16:36:52.204Z,69.20
2018-11-01T16:39:23.108Z,69.30
2018-11-01T16:41:55.196Z,69.50
2018-11-01T16:44:25.568Z,69.50
2018-11-01T16:46:56.163Z,69.50
2018-11-01T16:49:27.547Z,69.60
2018-11-01T16:51:58.408Z,69.80
2018-11-01T16:54:28.710Z,69.90
2018-11-01T16:57:00.373Z,70.10
2018-11-01T16:59:31.077Z,70.00
2018-11-01T17:02:02.788Z,70.50
2018-11-01T17:04:33.770Z,71.10
2018-11-01T17:07:04.068Z,71.10
2018-11-01T17:09:35.780Z,72.00
2018-11-01T17:12:07.668Z,71.80
2018-11-01T17:14:38.277Z,71.80
2018-11-01T17:17:08.817Z,72.00
2018-11-01T17:19:41.047Z,72.10
2018-11-01T17:22:12.736Z,72.00
2018-11-01T17:24:44.201Z,72.10
2018-11-01T17:27:14.365Z,72.40
2018-11-01T17:29:45.236Z,72.60
2018-11-01T17:32:15.121Z,72.70
2018-11-01T17:34:46.465Z,73.30
2018-11-01T17:37:17.750Z,73.30
2018-11-01T17:40:06.677Z,73.60
2018-11-01T17:42:36.156Z,73.40
2018-11-01T17:45:07.728Z,73.50
2018-11-01T17:47:38.727Z,74.30
2018-11-01T17:50:11.581Z,74.00
2018-11-01T17:52:42.506Z,74.00
2018-11-01T17:55:13.210Z,74.10
2018-11-01T17:57:44.155Z,74.10
2018-11-01T18:00:16.644Z,72.30
2018-11-01T18:02:47.840Z,70.90
2018-11-01T18:05:17.947Z,70.60
2018-11-01T18:07:48.347Z,70.00
2018-11-01T18:10:18.243Z,69.90
2018-11-01T18:12:48.367Z,69.60
2018-11-01T18:15:18.569Z,69.60
2018-11-01T18:17:50.126Z,69.00
2018-11-01T18:20:20.332Z,68.60
2018-11-01T18:22:51.274Z,67.70
2018-11-01T18:25:21.337Z,66.20
2018-11-01T18:27:52.184Z,66.00
2018-11-01T18:30:23.758Z,66.20
2018-11-01T18:32:53.901Z,65.50
2018-11-01T18:35:25.464Z,66.10
2018-11-01T18:37:56.040Z,65.10
2018-11-01T18:40:30.782Z,65.00
2018-11-01T18:43:01.527Z,65.20
2018-11-01T18:45:32.109Z,65.30
2018-11-01T18:48:02.627Z,65.90
2018-11-01T18:50:33.776Z,66.10
2018-11-01T18:53:04.289Z,66.10
2018-11-01T18:55:35.762Z,66.40
2018-11-01T18:58:06.678Z,66.90
2018-11-01T19:00:37.260Z,67.20
2018-11-01T19:03:07.921Z,67.40
2018-11-01T19:05:38.204Z,67.60
2018-11-01T19:08:09.778Z,67.70
2018-11-01T19:10:39.747Z,68.00
2018-11-01T19:13:09.892Z,68.30
2018-11-01T19:15:40.391Z,68.90
2018-11-01T19:18:12.143Z,69.00
2018-11-01T19:20:43.185Z,69.10
2018-11-01T19:23:13.533Z,69.30
2018-11-01T19:25:43.594Z,69.20
2018-11-01T19:28:14.304Z,69.10
2018-11-01T19:30:44.623Z,69.00
2018-11-01T19:33:15.123Z,69.30
2018-11-01T19:35:45.042Z,69.20
2018-11-01T19:38:15.711Z,69.50
2018-11-01T19:40:46.435Z,69.30
2018-11-01T19:43:16.986Z,69.30
2018-11-01T19:45:47.226Z,69.50
2018-11-01T19:48:17.890Z,69.60
2018-11-01T19:50:48.278Z,69.90
2018-11-01T19:53:20.913Z,70.20
2018-11-01T19:55:52.812Z,70.50
2018-11-01T19:58:24.097Z,70.80
2018-11-01T20:00:54.828Z,71.00
2018-11-01T20:03:43.335Z,71.10
2018-11-01T20:06:14.969Z,71.40
2018-11-01T20:08:46.708Z,71.20
2018-11-01T20:11:17.304Z,71.10
2018-11-01T20:13:47.960Z,71.60
2018-11-01T20:16:18.686Z,71.60
2018-11-01T20:18:49.934Z,71.50
2018-11-01T20:21:20.360Z,71.50
2018-11-01T20:23:53.031Z,71.40
2018-11-01T20:26:23.693Z,71.50
2018-11-01T20:28:53.944Z,71.60
2018-11-01T20:31:26.161Z,72.20
2018-11-01T20:33:56.320Z,72.40
2018-11-01T20:36:29.031Z,72.40
2018-11-01T20:38:59.364Z,72.20
2018-11-01T20:41:31.050Z,72.40
2018-11-01T20:44:01.635Z,72.50
2018-11-01T20:46:32.985Z,72.50
2018-11-01T20:49:03.665Z,72.70
2018-11-01T20:51:33.799Z,72.40
2018-11-01T20:54:04.299Z,72.10
2018-11-01T20:56:36.208Z,72.00
2018-11-01T20:59:06.923Z,72.10
2018-11-01T21:01:37.522Z,72.30
2018-11-01T21:04:08.148Z,72.40
2018-11-01T21:06:38.584Z,72.30
2018-11-01T21:09:11.452Z,72.30
2018-11-01T21:11:41.626Z,72.30
2018-11-01T21:14:11.845Z,72.30
2018-11-01T21:16:41.696Z,72.30
2018-11-01T21:19:11.844Z,72.10
2018-11-01T21:21:42.853Z,72.20
2018-11-01T21:24:12.728Z,72.10
2018-11-01T21:26:43.049Z,72.10
2018-11-01T21:29:14.130Z,72.30
2018-11-01T21:31:45.721Z,72.40
2018-11-01T21:34:15.795Z,72.30
2018-11-01T21:36:46.564Z,72.30
2018-11-01T21:39:16.898Z,72.20
2018-11-01T21:41:47.038Z,72.40
2018-11-01T21:44:17.880Z,72.50
2018-11-01T21:46:50.524Z,72.40
2018-11-01T21:49:21.536Z,72.50
2018-11-01T21:52:09.377Z,72.60
2018-11-01T21:54:40.339Z,72.50
2018-11-01T21:57:10.640Z,72.50
2018-11-01T21:59:42.551Z,73.50
2018-11-01T22:02:12.249Z,73.50
2018-11-01T22:04:43.031Z,73.30
2018-11-01T22:07:13.215Z,73.20
2018-11-01T22:09:45.145Z,73.50
2018-11-01T22:12:15.425Z,73.80
2018-11-01T22:14:45.728Z,73.70
2018-11-01T22:17:16.343Z,73.60
2018-11-01T22:19:46.994Z,73.50
2018-11-01T22:22:17.936Z,73.50
2018-11-01T22:24:48.253Z,73.60
2018-11-01T22:27:18.645Z,73.60
2018-11-01T22:29:48.927Z,73.60
2018-11-01T22:32:19.108Z,73.70
2018-11-01T22:34:48.885Z,73.80
2018-11-01T22:37:28.127Z,74.00
2018-11-01T22:39:58.700Z,74.30
2018-11-01T22:42:29.006Z,74.50
2018-11-01T22:45:00.469Z,74.70
2018-11-01T22:47:30.636Z,74.50
2018-11-01T22:50:00.475Z,74.40
2018-11-01T22:52:32.128Z,73.90
2018-11-01T22:55:02.207Z,73.70
2018-11-01T22:57:32.515Z,73.50
2018-11-01T23:00:03.663Z,72.90
2018-11-01T23:02:33.817Z,72.70
2018-11-01T23:05:04.109Z,72.80
2018-11-01T23:07:34.744Z,73.10
2018-11-01T23:10:05.808Z,74.10
2018-11-01T23:12:36.187Z,73.40
2018-11-01T23:15:07.714Z,73.60
2018-11-01T23:17:37.446Z,73.60
2018-11-01T23:20:07.756Z,73.80
2018-11-01T23:22:37.386Z,74.00
2018-11-01T23:25:08.062Z,73.90
2018-11-01T23:27:38.121Z,73.90
2018-11-01T23:30:07.682Z,73.90
2018-11-01T23:32:37.321Z,73.80
2018-11-01T23:35:07.783Z,73.60
2018-11-01T23:37:43.499Z,74.20
2018-11-01T23:40:18.873Z,73.20
2018-11-01T23:42:54.045Z,73.00
2018-11-01T23:45:29.751Z,72.90
2018-11-01T23:47:59.552Z,73.10
2018-11-01T23:51:34.827Z,73.10
2018-11-01T23:54:06.168Z,73.30
2018-11-01T23:56:37.071Z,73.20
2018-11-01T23:59:07.652Z,73.20
